Time;durP1;ratioP1;P1;durP2;ratioP2;P2;SDS_P1;SDS_P2;PMS_P1;PMS_P2;Temp;Humidity;BMP_temperature;BMP_pressure;BME280_temperature;BME280_humidity;BME280_pressure;Samples;Min_cycle;Max_cycle;Signal;HPM_P1;HPM_P2
2021/09/17 00:01:37;;;;;;;2.67;1.67;;;15.40;99.90;15.50;100439.00;;;;4978018;28;95236;-61
2021/09/17 00:04:03;;;;;;;2.55;1.20;;;15.40;99.90;15.50;100428.00;;;;4977909;28;89156;-62
2021/09/17 00:06:28;;;;;;;1.52;1.25;;;15.40;99.90;15.50;100429.00;;;;4977962;28;117442;-61
2021/09/17 00:08:54;;;;;;;3.72;1.48;;;15.40;99.90;15.50;100428.00;;;;4977580;28;111152;-62
2021/09/17 00:11:20;;;;;;;1.65;1.17;;;15.40;99.90;15.50;100425.00;;;;4978173;28;108236;-62
2021/09/17 00:13:45;;;;;;;2.40;1.48;;;15.40;99.90;15.50;100423.00;;;;4977119;28;105019;-63
2021/09/17 00:16:11;;;;;;;1.50;1.25;;;15.40;99.90;15.50;100422.00;;;;4978324;28;88161;-63
2021/09/17 00:18:37;;;;;;;2.20;1.27;;;15.50;99.90;15.50;100420.00;;;;4978405;28;87791;-62
2021/09/17 00:21:03;;;;;;;2.33;1.15;;;15.50;99.90;15.50;100422.00;;;;4978492;28;87772;-63
2021/09/17 00:23:28;;;;;;;1.55;1.45;;;15.40;99.90;15.60;100421.00;;;;4977126;28;106323;-62
2021/09/17 00:25:54;;;;;;;1.20;1.10;;;15.40;99.90;15.60;100413.00;;;;4976885;28;117770;-62
2021/09/17 00:28:20;;;;;;;1.20;1.00;;;15.50;99.90;15.60;100427.00;;;;4977310;28;109730;-61
2021/09/17 00:30:46;;;;;;;1.55;1.27;;;15.50;99.90;15.60;100424.00;;;;4978085;28;107804;-62
2021/09/17 00:33:11;;;;;;;3.35;1.33;;;15.50;99.90;15.60;100415.00;;;;4976727;28;119406;-61
2021/09/17 00:35:37;;;;;;;1.97;1.10;;;15.50;99.90;15.60;100417.00;;;;4977475;28;108014;-62
2021/09/17 00:38:04;;;;;;;2.08;1.25;;;15.50;99.90;15.60;100416.00;;;;4977342;28;88518;-62
2021/09/17 00:40:31;;;;;;;1.42;1.08;;;15.50;99.90;15.60;100413.00;;;;4978321;28;87639;-62
2021/09/17 00:42:57;;;;;;;1.63;1.02;;;15.50;99.90;15.60;100410.00;;;;4971454;28;89248;-61
2021/09/17 00:45:23;;;;;;;2.35;1.38;;;15.50;99.90;15.60;100411.00;;;;4975058;28;118235;-61
2021/09/17 00:47:49;;;;;;;1.65;1.13;;;15.50;99.90;15.60;100413.00;;;;4977294;28;109498;-61
2021/09/17 00:50:19;;;;;;;2.03;1.17;;;15.50;99.90;15.60;100419.00;;;;4977922;28;87876;-62
2021/09/17 00:52:47;;;;;;;1.30;1.17;;;15.50;99.90;15.60;100411.00;;;;4976409;28;96438;-62
2021/09/17 00:55:13;;;;;;;1.20;1.10;;;15.50;99.90;15.60;100415.00;;;;4975444;28;100270;-62
2021/09/17 00:57:39;;;;;;;1.30;1.20;;;15.50;99.90;15.60;100403.00;;;;4977437;28;92942;-62
2021/09/17 01:00:09;;;;;;;5.05;1.25;;;15.50;99.90;15.60;100403.00;;;;4978058;28;88855;-62
2021/09/17 01:02:34;;;;;;;1.08;0.98;;;15.50;99.90;15.60;100402.00;;;;4976704;28;90144;-62
2021/09/17 01:05:01;;;;;;;1.92;1.33;;;15.50;99.90;15.60;100407.00;;;;4977563;28;87976;-62
2021/09/17 01:07:27;;;;;;;1.50;1.27;;;15.50;99.90;15.50;100406.00;;;;4977311;28;93460;-62
2021/09/17 01:09:54;;;;;;;1.08;0.98;;;15.40;99.90;15.60;100402.00;;;;4976854;28;89260;-62
2021/09/17 01:12:20;;;;;;;1.75;1.48;;;15.50;99.90;15.60;100404.00;;;;4975104;28;93671;-62
2021/09/17 01:14:46;;;;;;;1.30;0.90;;;15.40;99.90;15.60;100399.00;;;;4976183;28;116972;-63
2021/09/17 01:17:12;;;;;;;1.30;1.20;;;15.50;99.90;15.60;100404.00;;;;4975055;28;110128;-63
2021/09/17 01:19:38;;;;;;;1.88;1.48;;;15.50;99.90;15.60;100404.00;;;;4978060;28;87090;-62
2021/09/17 01:22:09;;;;;;;1.13;1.02;;;15.50;99.90;15.60;100408.00;;;;4977059;28;88320;-62
2021/09/17 01:24:37;;;;;;;1.13;0.70;;;15.50;99.90;15.60;100405.00;;;;4976325;28;88140;-62
2021/09/17 01:27:04;;;;;;;2.70;1.40;;;15.50;99.90;15.60;100393.00;;;;4977312;28;88719;-62
2021/09/17 01:29:31;;;;;;;1.20;1.10;;;15.50;99.90;15.70;100399.00;;;;4976653;28;87920;-62
2021/09/17 01:31:57;;;;;;;0.82;0.77;;;15.50;99.90;15.70;100394.00;;;;4977457;28;87911;-62
2021/09/17 01:34:24;;;;;;;1.65;1.10;;;15.60;99.90;15.70;100391.00;;;;4959942;28;87836;-63
2021/09/17 01:36:51;;;;;;;0.88;0.82;;;15.60;99.90;15.70;100389.00;;;;4977544;28;87832;-62
2021/09/17 01:39:19;;;;;;;2.35;1.08;;;15.60;99.90;15.70;100392.00;;;;4976882;28;90275;-63
2021/09/17 01:41:46;;;;;;;1.95;1.23;;;15.50;99.90;15.70;100393.00;;;;4977143;28;89064;-62
2021/09/17 01:44:12;;;;;;;2.20;1.33;;;15.60;99.90;15.70;100379.00;;;;4976766;28;97778;-62
2021/09/17 01:46:38;;;;;;;1.65;1.20;;;15.60;99.90;15.70;100388.00;;;;4977519;28;87779;-62
2021/09/17 01:49:03;;;;;;;1.52;1.15;;;15.60;99.90;15.70;100382.00;;;;4976719;28;87938;-63
2021/09/17 01:51:29;;;;;;;1.15;1.05;;;16.10;99.90;15.70;100379.00;;;;4976002;28;99021;-63
2021/09/17 01:53:55;;;;;;;1.73;0.80;;;15.60;99.90;15.70;100386.00;;;;4959860;28;90092;-62
2021/09/17 01:56:23;;;;;;;1.92;1.17;;;15.70;99.90;15.80;100376.00;;;;4976366;28;104341;-63
2021/09/17 01:58:50;;;;;;;6.05;1.10;;;15.70;99.90;15.70;100386.00;;;;4976932;28;87573;-63
2021/09/17 02:01:16;;;;;;;1.45;0.98;;;15.70;99.90;15.80;100383.00;;;;4958086;28;91401;-62
2021/09/17 02:03:42;;;;;;;2.22;1.38;;;15.60;99.90;15.80;100373.00;;;;4976375;28;88495;-62
2021/09/17 02:06:08;;;;;;;1.17;1.02;;;15.60;99.90;15.80;100378.00;;;;4976077;28;110429;-62
2021/09/17 02:08:34;;;;;;;1.33;1.00;;;15.70;99.90;15.80;100376.00;;;;4976209;28;107307;-63
2021/09/17 02:11:00;;;;;;;1.98;0.80;;;15.60;99.90;15.80;100379.00;;;;4976583;28;88047;-63
2021/09/17 02:13:26;;;;;;;1.38;1.00;;;15.70;99.90;15.80;100378.00;;;;4975226;28;117273;-62
2021/09/17 02:15:53;;;;;;;3.97;1.30;;;15.70;99.90;15.80;100374.00;;;;4974758;28;111163;-63
2021/09/17 02:18:20;;;;;;;1.30;0.93;;;15.70;99.90;15.80;100367.00;;;;4976159;28;87789;-61
2021/09/17 02:20:47;;;;;;;1.13;0.73;;;15.70;99.90;15.80;100356.00;;;;4975850;28;105455;-61
2021/09/17 02:23:14;;;;;;;1.60;1.00;;;15.70;99.90;15.80;100365.00;;;;4974870;28;87737;-64
2021/09/17 02:25:40;;;;;;;1.15;1.00;;;15.70;99.90;15.80;100367.00;;;;4976340;28;87738;-63
2021/09/17 02:28:06;;;;;;;1.50;1.05;;;15.70;99.90;15.80;100360.00;;;;4960175;28;109956;-63
2021/09/17 02:30:32;;;;;;;1.08;0.88;;;15.70;99.90;15.80;100357.00;;;;4975372;28;88169;-61
2021/09/17 02:32:59;;;;;;;1.08;0.98;;;15.70;99.90;15.80;100364.00;;;;4976489;28;87977;-62
2021/09/17 02:35:25;;;;;;;2.10;1.15;;;15.70;99.90;15.80;100360.00;;;;4976202;28;87794;-63
2021/09/17 02:37:51;;;;;;;5.72;1.40;;;15.60;99.90;15.80;100357.00;;;;4976585;28;87933;-62
2021/09/17 02:40:18;;;;;;;1.02;1.00;;;15.70;99.90;15.80;100359.00;;;;4974397;28;113590;-62
2021/09/17 02:42:46;;;;;;;2.25;1.25;;;15.70;99.90;15.80;100355.00;;;;4975407;28;97402;-63
2021/09/17 02:45:13;;;;;;;1.35;1.20;;;15.70;99.90;15.80;100359.00;;;;4975861;28;88162;-62
2021/09/17 02:47:41;;;;;;;2.53;1.23;;;15.80;99.90;15.80;100356.00;;;;4975984;28;87685;-63
2021/09/17 02:50:08;;;;;;;0.95;0.82;;;15.60;99.90;15.80;100364.00;;;;4975985;28;87710;-62
2021/09/17 02:52:34;;;;;;;1.23;1.10;;;15.60;99.90;15.70;100356.00;;;;4975444;28;95209;-62
2021/09/17 02:54:59;;;;;;;3.17;1.33;;;15.60;99.90;15.80;100356.00;;;;4975679;28;95152;-63
2021/09/17 02:57:25;;;;;;;4.05;1.33;;;15.60;99.90;15.80;100352.00;;;;4976985;28;87318;-63
2021/09/17 02:59:51;;;;;;;1.08;0.98;;;15.60;99.90;15.80;100350.00;;;;4975253;28;118467;-63
2021/09/17 03:02:17;;;;;;;3.53;1.38;;;15.70;99.90;15.80;100355.00;;;;4974781;28;117250;-63
2021/09/17 03:04:43;;;;;;;1.50;1.08;;;15.60;99.90;15.80;100341.00;;;;4975360;28;88966;-64
2021/09/17 03:07:09;;;;;;;1.38;1.27;;;15.60;99.90;15.80;100351.00;;;;4975527;28;97057;-65
2021/09/17 03:09:35;;;;;;;3.22;1.40;;;15.70;99.90;15.80;100347.00;;;;4975602;28;87767;-64
2021/09/17 03:12:00;;;;;;;3.03;1.23;;;15.80;99.90;15.80;100356.00;;;;4974492;28;118226;-63
2021/09/17 03:14:26;;;;;;;2.58;1.40;;;15.70;99.90;15.80;100350.00;;;;4977919;28;87850;-64
2021/09/17 03:16:52;;;;;;;1.17;0.98;;;15.70;99.90;15.80;100351.00;;;;4976582;28;87685;-64
2021/09/17 03:19:18;;;;;;;2.35;1.10;;;15.70;99.90;15.80;100354.00;;;;4974954;28;96676;-62
2021/09/17 03:21:45;;;;;;;1.05;0.98;;;15.70;99.90;15.80;100344.00;;;;4957078;28;87244;-64
2021/09/17 03:24:11;;;;;;;0.98;0.88;;;15.70;99.90;15.80;100354.00;;;;4975293;28;87762;-64
2021/09/17 03:26:37;;;;;;;1.70;1.02;;;15.70;99.90;15.80;100354.00;;;;4975744;28;87892;-63
2021/09/17 03:29:04;;;;;;;1.63;1.17;;;15.70;99.90;15.80;100346.00;;;;4973601;28;117497;-63
2021/09/17 03:31:30;;;;;;;2.83;1.05;;;15.70;99.90;15.80;100350.00;;;;4975158;28;89469;-63
2021/09/17 03:33:58;;;;;;;1.13;0.93;;;15.70;99.90;15.80;100345.00;;;;4976380;28;87734;-64
2021/09/17 03:36:26;;;;;;;1.17;0.80;;;15.70;99.90;15.80;100336.00;;;;4979433;28;88047;-63
2021/09/17 03:38:53;;;;;;;1.65;1.42;;;15.70;99.90;15.80;100334.00;;;;4978334;28;89340;-64
2021/09/17 03:41:18;;;;;;;1.17;1.02;;;15.70;99.90;15.70;100330.00;;;;4978456;28;88581;-63
2021/09/17 03:43:44;;;;;;;1.83;1.08;;;15.60;99.90;15.70;100331.00;;;;4977600;28;111005;-62
2021/09/17 03:46:10;;;;;;;2.95;1.30;;;15.60;99.90;15.70;100332.00;;;;4977801;28;108845;-62
2021/09/17 03:48:35;;;;;;;1.38;1.10;;;15.60;99.90;15.70;100323.00;;;;4977271;28;117537;-64
2021/09/17 03:51:01;;;;;;;3.10;1.10;;;15.60;99.90;15.70;100326.00;;;;4978259;28;104956;-64
2021/09/17 03:53:27;;;;;;;2.33;1.55;;;15.60;99.90;15.70;100320.00;;;;4977358;28;110254;-63
2021/09/17 03:55:52;;;;;;;1.25;0.98;;;15.60;99.90;15.70;100332.00;;;;4977642;28;108679;-62
2021/09/17 03:58:18;;;;;;;2.72;1.30;;;15.60;99.90;15.70;100334.00;;;;4977406;28;117829;-63
2021/09/17 04:00:44;;;;;;;1.95;1.33;;;15.60;99.90;15.70;100323.00;;;;4977049;28;117938;-63
2021/09/17 04:03:10;;;;;;;1.40;1.30;;;15.60;99.90;15.70;100325.00;;;;4977481;28;107622;-62
2021/09/17 04:05:35;;;;;;;1.13;0.80;;;15.60;99.90;15.70;100325.00;;;;4977709;28;105763;-63
2021/09/17 04:08:02;;;;;;;2.60;1.20;;;15.60;99.90;15.70;100330.00;;;;4977259;28;117726;-64
2021/09/17 04:10:28;;;;;;;1.38;0.75;;;15.60;99.90;15.80;100326.00;;;;4978913;28;88485;-63
2021/09/17 04:12:54;;;;;;;1.10;0.82;;;15.60;99.90;15.80;100320.00;;;;4977316;28;110587;-64
2021/09/17 04:15:19;;;;;;;1.40;0.80;;;15.60;99.90;15.80;100332.00;;;;4978337;28;92339;-62
2021/09/17 04:17:45;;;;;;;0.80;0.77;;;15.70;99.90;15.80;100324.00;;;;4969834;28;119074;-64
2021/09/17 04:20:12;;;;;;;2.22;1.40;;;15.70;99.90;15.80;100322.00;;;;4978400;28;88288;-63
2021/09/17 04:22:38;;;;;;;1.00;0.90;;;15.70;99.90;15.80;100318.00;;;;4978021;28;87828;-63
2021/09/17 04:25:06;;;;;;;3.40;1.30;;;15.70;99.90;15.80;100325.00;;;;4978180;28;87594;-62
2021/09/17 04:27:32;;;;;;;3.40;1.55;;;15.70;99.90;15.80;100322.00;;;;4977349;28;101241;-64
2021/09/17 04:29:58;;;;;;;2.63;0.95;;;15.70;99.90;15.80;100331.00;;;;4977946;28;90742;-63
2021/09/17 04:32:24;;;;;;;1.33;0.83;;;15.70;99.90;15.80;100323.00;;;;4976965;28;109872;-64
2021/09/17 04:34:50;;;;;;;0.77;0.77;;;15.70;99.90;15.80;100321.00;;;;4977358;28;109713;-63
2021/09/17 04:37:17;;;;;;;4.00;1.15;;;15.60;99.90;15.80;100322.00;;;;4976906;28;110086;-63
2021/09/17 04:39:43;;;;;;;1.53;1.13;;;15.70;99.90;15.80;100338.00;;;;4976202;28;88324;-63
2021/09/17 04:42:08;;;;;;;3.60;1.20;;;15.60;99.90;15.80;100326.00;;;;4977763;28;88926;-63
2021/09/17 04:44:34;;;;;;;1.30;1.20;;;15.60;99.90;15.70;100330.00;;;;4976003;28;109066;-63
2021/09/17 04:47:00;;;;;;;1.23;0.77;;;15.60;99.90;15.70;100326.00;;;;4975772;28;117646;-63
2021/09/17 04:49:25;;;;;;;3.65;1.52;;;14.60;99.90;15.70;100336.00;;;;4976032;28;118268;-62
2021/09/17 04:51:51;;;;;;;1.13;0.80;;;15.60;99.90;15.70;100330.00;;;;4976767;28;110192;-62
2021/09/17 04:54:17;;;;;;;6.75;1.25;;;15.60;99.90;15.70;100339.00;;;;4976626;28;108960;-63
2021/09/17 04:56:43;;;;;;;3.03;1.13;;;15.90;99.90;15.70;100339.00;;;;4976381;28;88801;-64
2021/09/17 04:59:11;;;;;;;1.67;1.15;;;15.60;99.90;15.70;100341.00;;;;4976747;28;117383;-63
2021/09/17 05:01:37;;;;;;;3.70;1.55;;;15.60;99.90;15.70;100349.00;;;;4977723;28;87775;-64
2021/09/17 05:04:03;;;;;;;1.55;1.10;;;15.60;99.90;15.70;100343.00;;;;4977358;28;89837;-63
2021/09/17 05:06:31;;;;;;;1.30;1.20;;;15.60;99.90;15.60;100345.00;;;;4975761;28;98922;-63
2021/09/17 05:08:58;;;;;;;1.83;1.20;;;15.50;99.90;15.50;100350.00;;;;4977337;28;89525;-62
2021/09/17 05:11:24;;;;;;;3.15;1.65;;;15.50;99.90;15.50;100343.00;;;;4977004;28;87602;-63
2021/09/17 05:13:50;;;;;;;1.90;1.38;;;15.40;99.90;15.40;100340.00;;;;4960629;28;89236;-63
2021/09/17 05:16:16;;;;;;;5.32;1.50;;;15.40;99.90;15.40;100338.00;;;;4976985;28;89067;-63
2021/09/17 05:18:43;;;;;;;3.13;1.30;;;15.30;99.90;15.40;100347.00;;;;4976132;28;116026;-64
2021/09/17 05:21:10;;;;;;;2.40;1.67;;;15.30;99.90;15.40;100344.00;;;;4977739;28;87828;-65
2021/09/17 05:23:36;;;;;;;2.58;1.40;;;15.30;99.90;15.40;100343.00;;;;4974375;28;89628;-63
2021/09/17 05:26:02;;;;;;;3.55;1.98;;;15.30;99.90;15.40;100344.00;;;;4975628;28;117079;-63
2021/09/17 05:28:29;;;;;;;1.52;1.42;;;15.40;99.90;15.40;100353.00;;;;4976548;28;88633;-63
2021/09/17 05:30:55;;;;;;;3.22;1.27;;;15.30;99.90;15.40;100351.00;;;;4976896;28;88514;-63
2021/09/17 05:33:21;;;;;;;3.60;1.60;;;15.30;99.90;15.40;100340.00;;;;4976545;28;107999;-62
2021/09/17 05:35:47;;;;;;;1.98;1.33;;;15.40;99.90;15.40;100354.00;;;;4976310;28;101120;-63
2021/09/17 05:38:12;;;;;;;2.87;1.60;;;15.40;99.90;15.40;100350.00;;;;4975738;28;111752;-64
2021/09/17 05:40:38;;;;;;;2.30;1.10;;;15.30;99.90;15.30;100352.00;;;;4976176;28;111455;-62
2021/09/17 05:43:04;;;;;;;3.22;1.15;;;15.30;99.90;15.30;100361.00;;;;4959210;28;87909;-63
2021/09/17 05:45:30;;;;;;;1.65;1.27;;;15.20;99.90;15.20;100359.00;;;;4976740;28;93405;-64
2021/09/17 05:47:56;;;;;;;2.92;1.33;;;15.20;99.90;15.10;100361.00;;;;4977077;28;92328;-63
2021/09/17 05:50:22;;;;;;;2.38;1.30;;;15.10;99.90;15.10;100356.00;;;;4975778;28;111230;-62
2021/09/17 05:52:47;;;;;;;3.40;2.00;;;15.00;99.90;15.00;100355.00;;;;4976633;28;87756;-63
2021/09/17 05:55:13;;;;;;;2.85;1.50;;;15.00;99.90;15.00;100362.00;;;;4975027;28;118401;-62
2021/09/17 05:57:39;;;;;;;2.10;1.50;;;14.90;99.90;14.90;100346.00;;;;4975700;28;98034;-62
2021/09/17 06:00:06;;;;;;;2.05;1.58;;;14.90;99.90;15.00;100352.00;;;;4976276;28;110685;-62
2021/09/17 06:02:32;;;;;;;1.33;1.23;;;14.90;99.90;15.00;100349.00;;;;4976291;28;91610;-62
2021/09/17 06:04:57;;;;;;;2.97;1.30;;;14.90;99.90;15.00;100355.00;;;;4975620;28;117862;-63
2021/09/17 06:07:23;;;;;;;2.75;1.60;;;14.90;99.90;15.00;100353.00;;;;4975235;28;117578;-63
2021/09/17 06:09:49;;;;;;;2.00;1.40;;;14.90;99.90;15.10;100347.00;;;;4975537;28;109619;-64
2021/09/17 06:12:14;;;;;;;1.97;1.77;;;15.00;99.90;15.20;100342.00;;;;4974469;28;108511;-64
2021/09/17 06:14:40;;;;;;;2.20;1.40;;;15.00;99.90;15.20;100350.00;;;;4960371;28;117903;-63
2021/09/17 06:17:06;;;;;;;1.40;1.27;;;15.10;99.90;15.30;100358.00;;;;4975690;28;118132;-63
2021/09/17 06:19:31;;;;;;;1.50;1.40;;;15.20;99.90;15.20;100365.00;;;;4975217;28;110603;-63
2021/09/17 06:21:57;;;;;;;5.22;2.00;;;15.20;99.90;15.20;100352.00;;;;4974766;28;87710;-61
2021/09/17 06:24:23;;;;;;;4.47;1.50;;;15.10;99.90;15.20;100347.00;;;;4974541;28;108032;-62
2021/09/17 06:26:49;;;;;;;1.67;1.53;;;15.10;99.90;15.20;100354.00;;;;4975451;28;114747;-63
2021/09/17 06:29:15;;;;;;;1.63;1.47;;;15.10;99.90;15.20;100363.00;;;;4975960;28;87729;-63
2021/09/17 06:31:41;;;;;;;4.47;1.30;;;15.10;99.90;15.20;100361.00;;;;4975482;28;91359;-61
2021/09/17 06:34:07;;;;;;;2.50;1.63;;;15.10;99.90;15.20;100364.00;;;;4975052;28;117409;-63
2021/09/17 06:36:33;;;;;;;1.43;1.20;;;15.10;99.90;15.20;100360.00;;;;4974950;28;117520;-61
2021/09/17 06:39:02;;;;;;;1.57;1.17;;;15.10;99.90;15.30;100363.00;;;;4975513;28;106124;-61
2021/09/17 06:41:29;;;;;;;1.90;1.45;;;15.10;99.90;15.30;100361.00;;;;4976004;28;87902;-62
2021/09/17 06:43:55;;;;;;;1.48;1.38;;;15.20;99.90;15.40;100357.00;;;;4974399;28;89613;-62
2021/09/17 06:46:21;;;;;;;0.85;0.85;;;15.20;99.90;15.40;100354.00;;;;4975471;28;89291;-62
2021/09/17 06:48:47;;;;;;;1.85;1.33;;;15.30;99.90;15.40;100358.00;;;;4974699;28;111347;-64
2021/09/17 06:51:13;;;;;;;2.33;1.45;;;15.30;99.90;15.50;100351.00;;;;4979565;28;99759;-62
2021/09/17 06:53:38;;;;;;;1.83;1.50;;;15.40;99.90;15.50;100349.00;;;;4977221;28;116566;-62
2021/09/17 06:56:04;;;;;;;3.70;1.63;;;15.90;99.90;15.50;100349.00;;;;4975664;28;93807;-62
2021/09/17 06:58:33;;;;;;;1.40;1.30;;;15.40;99.90;15.60;100357.00;;;;4973882;28;89435;-62
2021/09/17 07:01:00;;;;;;;1.65;1.40;;;15.50;99.90;15.70;100354.00;;;;4976670;28;87114;-63
2021/09/17 07:03:26;;;;;;;1.88;1.30;;;15.50;99.90;15.70;100358.00;;;;4975319;28;88083;-63
2021/09/17 07:05:52;;;;;;;1.20;1.10;;;15.60;99.90;15.90;100349.00;;;;4976016;28;88644;-64
2021/09/17 07:08:19;;;;;;;2.40;1.00;;;15.70;99.90;15.90;100343.00;;;;4974922;28;90327;-64
2021/09/17 07:10:47;;;;;;;1.37;1.00;;;15.80;99.90;16.10;100358.00;;;;4979665;28;87602;-64
2021/09/17 07:13:12;;;;;;;1.85;1.42;;;15.90;99.90;16.20;100355.00;;;;4979553;28;88325;-64
2021/09/17 07:15:39;;;;;;;1.25;1.02;;;16.00;99.90;16.30;100352.00;;;;4978165;28;111701;-64
2021/09/17 07:18:06;;;;;;;1.33;1.23;;;16.10;99.90;16.30;100362.00;;;;4978315;28;107010;-62
2021/09/17 07:20:35;;;;;;;2.58;1.10;;;16.20;99.90;16.40;100357.00;;;;4979387;28;87745;-62
2021/09/17 07:23:03;;;;;;;0.85;0.73;;;16.30;99.90;16.40;100353.00;;;;4978643;28;99709;-63
2021/09/17 07:25:29;;;;;;;4.28;0.77;;;16.30;99.90;16.50;100355.00;;;;4977371;28;88310;-62
2021/09/17 07:27:55;;;;;;;0.95;0.90;;;16.30;99.90;16.60;100359.00;;;;4977061;28;87930;-62
2021/09/17 07:30:22;;;;;;;1.00;0.93;;;16.40;99.90;16.60;100350.00;;;;4978854;28;109365;-63
2021/09/17 07:32:48;;;;;;;1.75;1.35;;;16.40;99.90;16.70;100346.00;;;;4966315;28;89903;-63
2021/09/17 07:35:15;;;;;;;5.47;0.98;;;16.50;99.90;16.70;100351.00;;;;4973419;28;88503;-63
2021/09/17 07:37:42;;;;;;;2.95;1.02;;;16.60;99.90;16.80;100354.00;;;;4978553;28;87736;-63
2021/09/17 07:40:13;;;;;;;3.70;0.80;;;16.70;99.90;16.90;100350.00;;;;4979522;28;87676;-63
2021/09/17 07:42:39;;;;;;;1.05;0.95;;;16.80;99.90;17.00;100352.00;;;;4976426;28;89186;-63
2021/09/17 07:45:06;;;;;;;1.02;0.93;;;16.90;99.90;17.10;100358.00;;;;4978950;28;87947;-63
2021/09/17 07:47:32;;;;;;;1.00;0.85;;;16.90;99.90;17.20;100347.00;;;;4953700;28;87804;-63
2021/09/17 07:49:59;;;;;;;2.17;1.15;;;17.00;99.90;17.40;100357.00;;;;4980446;28;87000;-64
2021/09/17 07:52:24;;;;;;;1.77;1.10;;;17.10;99.90;17.50;100351.00;;;;4978275;28;96247;-64
2021/09/17 07:54:50;;;;;;;0.63;0.63;;;17.30;99.90;17.70;100357.00;;;;4977556;28;117805;-62
2021/09/17 07:57:16;;;;;;;0.85;0.55;;;17.50;99.90;17.90;100357.00;;;;4977996;28;88720;-63
2021/09/17 07:59:41;;;;;;;3.50;0.68;;;17.80;99.90;18.00;100352.00;;;;4978821;28;91974;-63
2021/09/17 08:02:07;;;;;;;0.50;0.50;;;17.80;99.90;18.10;100359.00;;;;4978533;28;100317;-63
2021/09/17 08:04:33;;;;;;;0.52;0.52;;;17.90;99.90;18.10;100367.00;;;;4978491;28;88724;-63
2021/09/17 08:06:59;;;;;;;1.08;0.80;;;18.00;99.90;18.10;100357.00;;;;4978966;28;87860;-63
2021/09/17 08:09:24;;;;;;;0.70;0.50;;;17.90;99.90;18.00;100372.00;;;;4977614;28;104083;-63
2021/09/17 08:11:50;;;;;;;0.73;0.73;;;17.90;99.90;18.00;100376.00;;;;4977411;28;118857;-63
2021/09/17 08:14:16;;;;;;;1.50;0.68;;;17.90;99.90;17.90;100381.00;;;;4978005;28;88478;-63
2021/09/17 08:16:41;;;;;;;1.70;0.77;;;17.80;99.90;17.80;100372.00;;;;4977713;28;110177;-64
2021/09/17 08:19:07;;;;;;;0.77;0.70;;;17.70;99.90;17.80;100357.00;;;;4978843;28;87688;-62
2021/09/17 08:21:33;;;;;;;0.95;0.65;;;17.60;99.90;17.70;100367.00;;;;4976870;28;119737;-64
2021/09/17 08:23:59;;;;;;;1.10;0.70;;;17.60;99.90;17.70;100373.00;;;;4977698;28;89476;-63
2021/09/17 08:26:24;;;;;;;0.70;0.65;;;17.60;99.90;17.70;100371.00;;;;4977850;28;98175;-63
2021/09/17 08:28:50;;;;;;;0.90;0.73;;;17.50;99.90;17.60;100376.00;;;;4978562;28;87860;-62
2021/09/17 08:31:17;;;;;;;1.42;0.80;;;17.50;99.90;17.60;100378.00;;;;4975992;28;88169;-63
2021/09/17 08:33:43;;;;;;;0.70;0.70;;;17.50;99.90;17.70;100369.00;;;;4977139;28;88917;-63
2021/09/17 08:36:09;;;;;;;2.97;0.90;;;17.50;99.90;17.70;100379.00;;;;4977626;28;87413;-64
2021/09/17 08:38:37;;;;;;;2.15;1.00;;;17.60;99.90;17.70;100374.00;;;;4978018;28;86724;-62
2021/09/17 08:41:03;;;;;;;1.35;0.98;;;17.60;99.90;17.60;100370.00;;;;4977417;28;89021;-65
2021/09/17 08:43:29;;;;;;;1.05;0.93;;;17.50;99.90;17.40;100377.00;;;;4976938;28;93898;-62
2021/09/17 08:45:54;;;;;;;1.02;0.93;;;17.30;99.90;17.30;100371.00;;;;4977676;28;88692;-64
2021/09/17 08:48:29;;;;;;;1.02;0.77;;;17.20;99.90;17.20;100375.00;;;;4976528;28;110324;-64
2021/09/17 08:50:57;;;;;;;1.73;1.00;;;17.20;99.90;17.20;100379.00;;;;4977060;28;89323;-63
2021/09/17 08:53:24;;;;;;;1.38;1.10;;;17.10;99.90;17.30;100376.00;;;;4957597;28;87730;-63
2021/09/17 08:55:50;;;;;;;4.25;0.80;;;17.10;99.90;17.30;100390.00;;;;4957454;28;87690;-64
2021/09/17 08:58:16;;;;;;;1.73;0.93;;;17.20;99.90;17.40;100385.00;;;;4976565;28;88163;-63
2021/09/17 09:00:43;;;;;;;1.00;1.00;;;17.20;99.90;17.50;100390.00;;;;4977600;28;88167;-62
2021/09/17 09:03:09;;;;;;;1.08;0.70;;;17.30;99.90;17.50;100388.00;;;;4976941;28;87775;-62
2021/09/17 09:05:39;;;;;;;0.75;0.75;;;17.40;99.90;17.60;100382.00;;;;4977044;28;87842;-63
2021/09/17 09:08:06;;;;;;;0.95;0.85;;;17.40;99.90;17.60;100385.00;;;;4976592;28;87490;-63
2021/09/17 09:10:33;;;;;;;1.23;1.10;;;17.40;99.90;17.60;100383.00;;;;4976604;28;89686;-62
2021/09/17 09:13:05;;;;;;;1.10;0.90;;;17.40;99.90;17.60;100390.00;;;;4964701;28;89090;-62
2021/09/17 09:15:34;;;;;;;0.65;0.55;;;17.40;99.90;17.60;100385.00;;;;4975797;28;87895;-63
2021/09/17 09:18:13;;;;;;;2.20;1.25;;;17.50;99.90;17.40;100399.00;;;;4977035;28;87580;-63
2021/09/17 09:20:44;;;;;;;1.67;1.13;;;18.40;99.90;17.20;100381.00;;;;4977374;28;88468;-62
2021/09/17 09:23:21;;;;;;;1.15;1.05;;;16.90;99.90;16.90;100387.00;;;;4977008;28;87884;-62
2021/09/17 09:26:07;;;;;;;1.30;0.95;;;16.90;99.90;16.80;100400.00;;;;4977239;28;87921;-61
2021/09/17 09:28:37;;;;;;;1.00;0.80;;;16.80;99.90;16.60;100388.00;;;;4977536;28;86701;-62
2021/09/17 09:31:07;;;;;;;1.00;0.90;;;16.60;99.90;16.50;100391.00;;;;4976053;28;88681;-62
2021/09/17 09:33:42;;;;;;;2.28;0.98;;;16.50;99.90;16.40;100395.00;;;;4976543;28;88677;-62
2021/09/17 09:36:20;;;;;;;1.65;0.95;;;16.40;99.90;16.30;100401.00;;;;4975280;28;88721;-62
2021/09/17 09:38:52;;;;;;;1.33;1.15;;;16.30;99.90;16.10;100403.00;;;;4978529;28;87963;-65
2021/09/17 09:41:30;;;;;;;1.42;1.00;;;16.10;99.90;15.90;100396.00;;;;4976990;28;87835;-64
2021/09/17 09:44:14;;;;;;;2.60;1.73;;;16.00;99.90;15.80;100395.00;;;;4976466;28;87774;-63
2021/09/17 09:46:43;;;;;;;2.03;1.83;;;15.80;99.90;15.80;100389.00;;;;4976805;28;88392;-63
2021/09/17 09:49:18;;;;;;;2.90;1.75;;;15.70;99.90;15.80;100381.00;;;;4977689;28;87778;-63
2021/09/17 09:52:07;;;;;;;2.03;1.52;;;15.70;99.90;15.90;100387.00;;;;4976913;28;88428;-62
2021/09/17 09:54:36;;;;;;;2.00;1.38;;;15.70;99.90;16.00;100382.00;;;;4976916;28;87207;-63
2021/09/17 09:57:04;;;;;;;2.70;2.00;;;15.80;99.90;16.00;100385.00;;;;4974274;28;89516;-62
2021/09/17 09:59:32;;;;;;;2.78;1.77;;;15.90;99.90;16.10;100382.00;;;;4975915;28;87796;-62
2021/09/17 10:02:02;;;;;;;1.58;1.05;;;15.90;99.90;16.10;100390.00;;;;4975858;28;89232;-63
2021/09/17 10:04:30;;;;;;;2.42;1.60;;;16.00;99.90;16.10;100389.00;;;;4975900;28;89674;-63
2021/09/17 10:07:10;;;;;;;1.17;0.90;;;16.00;99.90;16.20;100385.00;;;;4976690;28;87900;-63
2021/09/17 10:09:39;;;;;;;1.77;1.48;;;16.10;99.90;16.20;100382.00;;;;4976813;28;87834;-62
2021/09/17 10:12:12;;;;;;;1.40;1.30;;;16.10;99.90;16.30;100382.00;;;;4976192;28;87946;-60
2021/09/17 10:14:42;;;;;;;2.60;1.55;;;16.20;99.90;16.30;100383.00;;;;4976118;28;91549;-61
2021/09/17 10:17:19;;;;;;;2.65;1.25;;;16.20;99.90;16.30;100383.00;;;;4958119;28;91169;-62
2021/09/17 10:19:47;;;;;;;1.40;1.30;;;16.20;99.90;16.20;100390.00;;;;4976798;28;87028;-63
2021/09/17 10:22:32;;;;;;;3.67;1.70;;;16.10;99.90;16.00;100385.00;;;;4975879;28;88129;-64
2021/09/17 10:25:07;;;;;;;1.60;1.45;;;16.00;99.90;15.80;100386.00;;;;4975641;28;87499;-63
2021/09/17 10:27:32;;;;;;;1.27;0.88;;;15.80;99.90;15.70;100381.00;;;;4976009;28;88584;-63
2021/09/17 10:30:01;;;;;;;1.42;1.13;;;15.70;99.90;15.70;100380.00;;;;4976259;28;94796;-63
2021/09/17 10:32:27;;;;;;;1.40;1.17;;;15.60;99.90;15.70;100373.00;;;;4975488;28;89029;-63
2021/09/17 10:35:12;;;;;;;2.03;1.30;;;15.60;99.90;15.80;100377.00;;;;4976302;28;87837;-62
2021/09/17 10:38:30;;;;;;;2.30;1.48;;;15.70;99.90;16.00;100374.00;;;;4975439;28;87823;-62
2021/09/17 10:41:02;;;;;;;1.65;1.25;;;15.80;99.90;16.30;100387.00;;;;4973665;28;87792;-61
2021/09/17 10:43:51;;;;;;;3.72;1.33;;;16.10;99.90;16.50;100373.00;;;;4973739;28;88497;-61
2021/09/17 10:46:20;;;;;;;1.70;1.13;;;16.30;99.90;16.80;100382.00;;;;4956973;28;101922;-61